Terminal Aerodrome Forecast
Issued by NWS

Home | Current Version | Previous Version | Text Only | Print | Product List | Glossary On
Versions: 1 2 3 4 5 6 7 8 9 10 11 12
000
FTUS45 KLKN 181142
TAFELY
TAF
KELY 181142Z 1812/1912 17008KT P6SM SCT120
     FM182000 35008KT P6SM SCT250
     FM190300 18007KT P6SM FEW250=

USA.gov is the U.S. government's official web portal to all federal, state and local government web resources and services.